sensor_id;sensor_type;location;lat;lon;timestamp;P1;durP1;ratioP1;P2;durP2;ratioP2
39266;SDS011;24967;51.154;13.812;2022-07-19T00:00:43;1.58;;;1.30;;
39266;SDS011;24967;51.154;13.812;2022-07-19T00:03:11;1.73;;;1.48;;
39266;SDS011;24967;51.154;13.812;2022-07-19T00:05:38;2.33;;;1.40;;
39266;SDS011;24967;51.154;13.812;2022-07-19T00:08:05;2.03;;;1.30;;
39266;SDS011;24967;51.154;13.812;2022-07-19T00:10:31;1.42;;;1.33;;
39266;SDS011;24967;51.154;13.812;2022-07-19T00:12:58;2.45;;;1.58;;
39266;SDS011;24967;51.154;13.812;2022-07-19T00:15:25;4.68;;;1.50;;
39266;SDS011;24967;51.154;13.812;2022-07-19T00:17:52;1.52;;;1.42;;
39266;SDS011;24967;51.154;13.812;2022-07-19T00:20:20;2.58;;;1.50;;
39266;SDS011;24967;51.154;13.812;2022-07-19T00:22:48;3.33;;;1.42;;
39266;SDS011;24967;51.154;13.812;2022-07-19T00:25:15;3.13;;;1.38;;
39266;SDS011;24967;51.154;13.812;2022-07-19T00:27:41;1.70;;;1.60;;
39266;SDS011;24967;51.154;13.812;2022-07-19T00:30:08;1.90;;;1.35;;
39266;SDS011;24967;51.154;13.812;2022-07-19T00:32:37;5.03;;;1.73;;
39266;SDS011;24967;51.154;13.812;2022-07-19T00:35:04;1.88;;;1.30;;
39266;SDS011;24967;51.154;13.812;2022-07-19T00:37:31;3.15;;;1.48;;
39266;SDS011;24967;51.154;13.812;2022-07-19T00:39:57;1.70;;;1.60;;
39266;SDS011;24967;51.154;13.812;2022-07-19T00:42:24;2.53;;;1.20;;
39266;SDS011;24967;51.154;13.812;2022-07-19T00:44:50;2.40;;;1.35;;
39266;SDS011;24967;51.154;13.812;2022-07-19T00:47:17;5.32;;;1.60;;
39266;SDS011;24967;51.154;13.812;2022-07-19T00:49:45;1.90;;;1.15;;
39266;SDS011;24967;51.154;13.812;2022-07-19T00:52:11;2.03;;;1.48;;
39266;SDS011;24967;51.154;13.812;2022-07-19T00:54:40;1.70;;;1.45;;
39266;SDS011;24967;51.154;13.812;2022-07-19T00:57:09;2.28;;;1.45;;
39266;SDS011;24967;51.154;13.812;2022-07-19T00:59:36;1.60;;;1.50;;
39266;SDS011;24967;51.154;13.812;2022-07-19T01:02:02;1.70;;;1.60;;
39266;SDS011;24967;51.154;13.812;2022-07-19T01:04:29;2.30;;;1.42;;
39266;SDS011;24967;51.154;13.812;2022-07-19T01:06:57;1.85;;;1.65;;
39266;SDS011;24967;51.154;13.812;2022-07-19T01:09:23;1.55;;;1.45;;
39266;SDS011;24967;51.154;13.812;2022-07-19T01:11:50;3.55;;;1.70;;
39266;SDS011;24967;51.154;13.812;2022-07-19T01:14:17;2.28;;;1.52;;
39266;SDS011;24967;51.154;13.812;2022-07-19T01:16:43;1.65;;;1.55;;
39266;SDS011;24967;51.154;13.812;2022-07-19T01:19:10;1.98;;;1.52;;
39266;SDS011;24967;51.154;13.812;2022-07-19T01:21:39;5.68;;;1.75;;
39266;SDS011;24967;51.154;13.812;2022-07-19T01:24:06;1.80;;;1.65;;
39266;SDS011;24967;51.154;13.812;2022-07-19T01:26:32;2.13;;;2.00;;
39266;SDS011;24967;51.154;13.812;2022-07-19T01:28:59;3.08;;;1.50;;
39266;SDS011;24967;51.154;13.812;2022-07-19T01:31:25;5.68;;;2.03;;
39266;SDS011;24967;51.154;13.812;2022-07-19T01:33:51;2.60;;;1.63;;
39266;SDS011;24967;51.154;13.812;2022-07-19T01:36:18;1.73;;;1.63;;
39266;SDS011;24967;51.154;13.812;2022-07-19T01:38:46;1.55;;;1.45;;
39266;SDS011;24967;51.154;13.812;2022-07-19T01:41:12;2.47;;;1.50;;
39266;SDS011;24967;51.154;13.812;2022-07-19T01:43:39;3.20;;;1.95;;
39266;SDS011;24967;51.154;13.812;2022-07-19T01:46:06;1.90;;;1.60;;
39266;SDS011;24967;51.154;13.812;2022-07-19T01:48:32;2.35;;;1.55;;
39266;SDS011;24967;51.154;13.812;2022-07-19T01:50:59;2.67;;;1.70;;
39266;SDS011;24967;51.154;13.812;2022-07-19T01:53:26;4.40;;;2.00;;
39266;SDS011;24967;51.154;13.812;2022-07-19T01:58:49;1.70;;;1.60;;
39266;SDS011;24967;51.154;13.812;2022-07-19T02:01:15;3.15;;;1.55;;
39266;SDS011;24967;51.154;13.812;2022-07-19T02:03:42;1.70;;;1.60;;
39266;SDS011;24967;51.154;13.812;2022-07-19T02:06:08;2.50;;;1.77;;
39266;SDS011;24967;51.154;13.812;2022-07-19T02:08:35;2.17;;;1.85;;
39266;SDS011;24967;51.154;13.812;2022-07-19T02:11:02;2.63;;;1.63;;
39266;SDS011;24967;51.154;13.812;2022-07-19T02:13:50;2.65;;;1.95;;
39266;SDS011;24967;51.154;13.812;2022-07-19T02:16:16;2.05;;;1.60;;
39266;SDS011;24967;51.154;13.812;2022-07-19T02:18:43;3.47;;;1.70;;
39266;SDS011;24967;51.154;13.812;2022-07-19T02:21:09;2.38;;;1.70;;
39266;SDS011;24967;51.154;13.812;2022-07-19T02:23:36;5.80;;;2.03;;
39266;SDS011;24967;51.154;13.812;2022-07-19T02:26:02;9.25;;;1.98;;
39266;SDS011;24967;51.154;13.812;2022-07-19T02:28:28;2.75;;;1.90;;
39266;SDS011;24967;51.154;13.812;2022-07-19T02:30:56;6.35;;;1.92;;
39266;SDS011;24967;51.154;13.812;2022-07-19T02:33:23;6.07;;;2.45;;
39266;SDS011;24967;51.154;13.812;2022-07-19T02:35:50;3.30;;;2.00;;
39266;SDS011;24967;51.154;13.812;2022-07-19T02:38:16;3.92;;;2.40;;
39266;SDS011;24967;51.154;13.812;2022-07-19T02:40:43;3.63;;;3.13;;
39266;SDS011;24967;51.154;13.812;2022-07-19T02:43:10;4.45;;;3.47;;
39266;SDS011;24967;51.154;13.812;2022-07-19T02:45:36;3.63;;;2.75;;
39266;SDS011;24967;51.154;13.812;2022-07-19T02:48:04;5.30;;;2.90;;
39266;SDS011;24967;51.154;13.812;2022-07-19T02:50:31;4.38;;;2.55;;
39266;SDS011;24967;51.154;13.812;2022-07-19T02:52:57;2.78;;;2.45;;
39266;SDS011;24967;51.154;13.812;2022-07-19T02:55:23;2.53;;;2.30;;
39266;SDS011;24967;51.154;13.812;2022-07-19T02:57:50;2.92;;;2.67;;
39266;SDS011;24967;51.154;13.812;2022-07-19T03:00:16;2.88;;;2.65;;
39266;SDS011;24967;51.154;13.812;2022-07-19T03:02:43;2.55;;;2.13;;
39266;SDS011;24967;51.154;13.812;2022-07-19T03:05:11;3.13;;;2.00;;
39266;SDS011;24967;51.154;13.812;2022-07-19T03:07:37;2.45;;;2.25;;
39266;SDS011;24967;51.154;13.812;2022-07-19T03:10:04;3.58;;;2.22;;
39266;SDS011;24967;51.154;13.812;2022-07-19T03:12:31;3.13;;;2.45;;
39266;SDS011;24967;51.154;13.812;2022-07-19T03:14:58;3.40;;;2.45;;
39266;SDS011;24967;51.154;13.812;2022-07-19T03:17:25;2.85;;;2.42;;
39266;SDS011;24967;51.154;13.812;2022-07-19T03:19:51;2.35;;;2.15;;
39266;SDS011;24967;51.154;13.812;2022-07-19T03:22:19;4.22;;;2.50;;
39266;SDS011;24967;51.154;13.812;2022-07-19T03:24:45;3.47;;;2.63;;
39266;SDS011;24967;51.154;13.812;2022-07-19T03:27:11;3.63;;;2.58;;
39266;SDS011;24967;51.154;13.812;2022-07-19T03:29:38;3.30;;;2.88;;
39266;SDS011;24967;51.154;13.812;2022-07-19T03:32:04;2.70;;;2.50;;
39266;SDS011;24967;51.154;13.812;2022-07-19T03:34:31;5.15;;;2.85;;
39266;SDS011;24967;51.154;13.812;2022-07-19T03:36:57;4.68;;;3.72;;
39266;SDS011;24967;51.154;13.812;2022-07-19T03:39:25;4.07;;;3.63;;
39266;SDS011;24967;51.154;13.812;2022-07-19T03:41:51;5.57;;;4.05;;
39266;SDS011;24967;51.154;13.812;2022-07-19T03:44:18;7.43;;;3.75;;
39266;SDS011;24967;51.154;13.812;2022-07-19T03:46:44;7.93;;;4.10;;
39266;SDS011;24967;51.154;13.812;2022-07-19T03:49:11;5.03;;;4.00;;
39266;SDS011;24967;51.154;13.812;2022-07-19T03:51:37;5.13;;;3.85;;
39266;SDS011;24967;51.154;13.812;2022-07-19T03:54:03;4.00;;;3.40;;
39266;SDS011;24967;51.154;13.812;2022-07-19T03:56:31;4.13;;;3.28;;
39266;SDS011;24967;51.154;13.812;2022-07-19T03:58:57;3.10;;;2.80;;
39266;SDS011;24967;51.154;13.812;2022-07-19T04:01:24;4.85;;;3.08;;
39266;SDS011;24967;51.154;13.812;2022-07-19T04:03:50;6.22;;;2.95;;
39266;SDS011;24967;51.154;13.812;2022-07-19T04:06:17;2.95;;;2.38;;
39266;SDS011;24967;51.154;13.812;2022-07-19T04:08:43;5.20;;;2.72;;
39266;SDS011;24967;51.154;13.812;2022-07-19T04:11:10;2.17;;;2.08;;
39266;SDS011;24967;51.154;13.812;2022-07-19T04:13:37;4.80;;;3.17;;
39266;SDS011;24967;51.154;13.812;2022-07-19T04:16:04;3.40;;;2.28;;
39266;SDS011;24967;51.154;13.812;2022-07-19T04:18:31;5.57;;;2.83;;
39266;SDS011;24967;51.154;13.812;2022-07-19T04:20:57;6.43;;;3.15;;
39266;SDS011;24967;51.154;13.812;2022-07-19T04:23:24;2.80;;;2.55;;
39266;SDS011;24967;51.154;13.812;2022-07-19T04:25:50;2.72;;;2.50;;
39266;SDS011;24967;51.154;13.812;2022-07-19T04:28:17;2.30;;;2.10;;
39266;SDS011;24967;51.154;13.812;2022-07-19T04:30:44;4.72;;;2.20;;
39266;SDS011;24967;51.154;13.812;2022-07-19T04:33:12;2.20;;;2.00;;
39266;SDS011;24967;51.154;13.812;2022-07-19T04:35:39;3.47;;;1.88;;
39266;SDS011;24967;51.154;13.812;2022-07-19T04:38:05;3.45;;;2.30;;
39266;SDS011;24967;51.154;13.812;2022-07-19T04:40:32;2.40;;;2.20;;
39266;SDS011;24967;51.154;13.812;2022-07-19T04:42:58;2.63;;;2.42;;
39266;SDS011;24967;51.154;13.812;2022-07-19T04:45:25;2.65;;;2.45;;
39266;SDS011;24967;51.154;13.812;2022-07-19T04:47:52;7.70;;;2.67;;
39266;SDS011;24967;51.154;13.812;2022-07-19T04:50:19;3.05;;;2.25;;
39266;SDS011;24967;51.154;13.812;2022-07-19T04:52:45;3.78;;;2.28;;
39266;SDS011;24967;51.154;13.812;2022-07-19T04:55:12;2.35;;;2.15;;
39266;SDS011;24967;51.154;13.812;2022-07-19T04:57:39;5.82;;;2.00;;
39266;SDS011;24967;51.154;13.812;2022-07-19T05:00:07;2.50;;;2.30;;
39266;SDS011;24967;51.154;13.812;2022-07-19T05:02:35;2.50;;;2.30;;
39266;SDS011;24967;51.154;13.812;2022-07-19T05:05:04;3.15;;;1.98;;
39266;SDS011;24967;51.154;13.812;2022-07-19T05:07:31;2.85;;;2.20;;
39266;SDS011;24967;51.154;13.812;2022-07-19T05:09:57;5.22;;;1.90;;
39266;SDS011;24967;51.154;13.812;2022-07-19T05:12:24;4.75;;;2.22;;
39266;SDS011;24967;51.154;13.812;2022-07-19T05:14:51;7.20;;;1.80;;
39266;SDS011;24967;51.154;13.812;2022-07-19T05:17:17;2.63;;;2.03;;
39266;SDS011;24967;51.154;13.812;2022-07-19T05:19:43;2.78;;;2.00;;
39266;SDS011;24967;51.154;13.812;2022-07-19T05:22:11;2.90;;;2.13;;
39266;SDS011;24967;51.154;13.812;2022-07-19T05:24:38;2.30;;;1.83;;
39266;SDS011;24967;51.154;13.812;2022-07-19T05:27:04;8.38;;;2.25;;
39266;SDS011;24967;51.154;13.812;2022-07-19T05:29:30;2.78;;;1.63;;
39266;SDS011;24967;51.154;13.812;2022-07-19T05:31:57;4.38;;;2.03;;
39266;SDS011;24967;51.154;13.812;2022-07-19T05:34:23;5.30;;;2.10;;
39266;SDS011;24967;51.154;13.812;2022-07-19T05:36:50;4.00;;;1.90;;
39266;SDS011;24967;51.154;13.812;2022-07-19T05:39:18;2.92;;;2.00;;
39266;SDS011;24967;51.154;13.812;2022-07-19T05:41:44;4.13;;;1.95;;
39266;SDS011;24967;51.154;13.812;2022-07-19T05:44:11;2.78;;;2.20;;
39266;SDS011;24967;51.154;13.812;2022-07-19T05:46:37;4.00;;;1.95;;
39266;SDS011;24967;51.154;13.812;2022-07-19T05:49:06;2.15;;;1.83;;
39266;SDS011;24967;51.154;13.812;2022-07-19T05:51:32;2.85;;;1.70;;
39266;SDS011;24967;51.154;13.812;2022-07-19T05:53:58;2.75;;;1.60;;
39266;SDS011;24967;51.154;13.812;2022-07-19T05:56:27;2.83;;;1.83;;
39266;SDS011;24967;51.154;13.812;2022-07-19T05:58:53;1.65;;;1.48;;
39266;SDS011;24967;51.154;13.812;2022-07-19T06:01:20;2.13;;;1.60;;
39266;SDS011;24967;51.154;13.812;2022-07-19T06:03:48;3.40;;;1.58;;
39266;SDS011;24967;51.154;13.812;2022-07-19T06:06:16;2.70;;;1.40;;
39266;SDS011;24967;51.154;13.812;2022-07-19T06:08:43;2.22;;;1.60;;
39266;SDS011;24967;51.154;13.812;2022-07-19T06:11:10;4.07;;;1.50;;
39266;SDS011;24967;51.154;13.812;2022-07-19T06:13:38;4.43;;;1.60;;
39266;SDS011;24967;51.154;13.812;2022-07-19T06:16:05;1.52;;;1.30;;
39266;SDS011;24967;51.154;13.812;2022-07-19T06:18:32;4.85;;;1.55;;
39266;SDS011;24967;51.154;13.812;2022-07-19T06:21:00;2.85;;;1.63;;
39266;SDS011;24967;51.154;13.812;2022-07-19T06:23:27;3.58;;;1.52;;
39266;SDS011;24967;51.154;13.812;2022-07-19T06:25:53;2.30;;;1.40;;
39266;SDS011;24967;51.154;13.812;2022-07-19T06:28:20;3.17;;;1.58;;
39266;SDS011;24967;51.154;13.812;2022-07-19T06:30:47;3.15;;;1.40;;
39266;SDS011;24967;51.154;13.812;2022-07-19T06:33:14;2.28;;;1.67;;
39266;SDS011;24967;51.154;13.812;2022-07-19T06:35:40;1.25;;;1.13;;
39266;SDS011;24967;51.154;13.812;2022-07-19T06:38:07;3.53;;;1.40;;
39266;SDS011;24967;51.154;13.812;2022-07-19T06:40:34;1.35;;;1.23;;
39266;SDS011;24967;51.154;13.812;2022-07-19T06:43:00;2.35;;;1.10;;
39266;SDS011;24967;51.154;13.812;2022-07-19T06:45:27;2.65;;;1.40;;
39266;SDS011;24967;51.154;13.812;2022-07-19T06:47:54;2.25;;;1.40;;
39266;SDS011;24967;51.154;13.812;2022-07-19T06:50:21;5.60;;;1.40;;
39266;SDS011;24967;51.154;13.812;2022-07-19T06:52:47;3.05;;;1.20;;
39266;SDS011;24967;51.154;13.812;2022-07-19T06:55:14;1.35;;;1.25;;
39266;SDS011;24967;51.154;13.812;2022-07-19T06:57:40;3.72;;;1.58;;
39266;SDS011;24967;51.154;13.812;2022-07-19T07:00:07;3.05;;;1.20;;
39266;SDS011;24967;51.154;13.812;2022-07-19T07:02:35;2.33;;;1.38;;
39266;SDS011;24967;51.154;13.812;2022-07-19T07:05:05;1.35;;;1.05;;
39266;SDS011;24967;51.154;13.812;2022-07-19T07:07:32;4.53;;;1.58;;
39266;SDS011;24967;51.154;13.812;2022-07-19T07:09:58;1.65;;;1.25;;
39266;SDS011;24967;51.154;13.812;2022-07-19T07:12:26;2.00;;;1.55;;
39266;SDS011;24967;51.154;13.812;2022-07-19T07:14:53;1.50;;;1.30;;
39266;SDS011;24967;51.154;13.812;2022-07-19T07:17:19;1.83;;;1.40;;
39266;SDS011;24967;51.154;13.812;2022-07-19T07:19:45;2.70;;;1.25;;
39266;SDS011;24967;51.154;13.812;2022-07-19T07:22:13;1.23;;;1.02;;
39266;SDS011;24967;51.154;13.812;2022-07-19T07:24:40;2.30;;;1.40;;
39266;SDS011;24967;51.154;13.812;2022-07-19T07:27:06;2.85;;;1.38;;
39266;SDS011;24967;51.154;13.812;2022-07-19T07:29:33;1.38;;;1.27;;
39266;SDS011;24967;51.154;13.812;2022-07-19T07:32:00;1.70;;;1.20;;
39266;SDS011;24967;51.154;13.812;2022-07-19T07:34:26;1.60;;;1.50;;
39266;SDS011;24967;51.154;13.812;2022-07-19T07:36:53;1.77;;;1.60;;
39266;SDS011;24967;51.154;13.812;2022-07-19T07:39:21;2.50;;;1.27;;
39266;SDS011;24967;51.154;13.812;2022-07-19T07:41:48;2.30;;;1.30;;
39266;SDS011;24967;51.154;13.812;2022-07-19T07:44:14;2.20;;;1.40;;
39266;SDS011;24967;51.154;13.812;2022-07-19T07:46:41;2.13;;;1.45;;
39266;SDS011;24967;51.154;13.812;2022-07-19T07:49:07;2.88;;;1.40;;
39266;SDS011;24967;51.154;13.812;2022-07-19T07:51:34;1.70;;;1.23;;
39266;SDS011;24967;51.154;13.812;2022-07-19T07:54:01;2.25;;;1.10;;
39266;SDS011;24967;51.154;13.812;2022-07-19T07:56:28;2.63;;;1.02;;
39266;SDS011;24967;51.154;13.812;2022-07-19T07:58:55;1.30;;;1.20;;
39266;SDS011;24967;51.154;13.812;2022-07-19T08:01:21;2.75;;;1.30;;
39266;SDS011;24967;51.154;13.812;2022-07-19T08:03:48;2.95;;;1.40;;
39266;SDS011;24967;51.154;13.812;2022-07-19T08:06:14;2.58;;;1.48;;
39266;SDS011;24967;51.154;13.812;2022-07-19T08:08:41;2.67;;;1.58;;
39266;SDS011;24967;51.154;13.812;2022-07-19T08:11:08;3.05;;;1.38;;
39266;SDS011;24967;51.154;13.812;2022-07-19T08:13:35;2.95;;;1.50;;
39266;SDS011;24967;51.154;13.812;2022-07-19T08:16:02;1.48;;;1.25;;
39266;SDS011;24967;51.154;13.812;2022-07-19T08:18:29;2.13;;;1.40;;
39266;SDS011;24967;51.154;13.812;2022-07-19T08:20:55;2.58;;;1.38;;
39266;SDS011;24967;51.154;13.812;2022-07-19T08:23:21;1.83;;;1.35;;
39266;SDS011;24967;51.154;13.812;2022-07-19T08:25:48;1.67;;;1.52;;
39266;SDS011;24967;51.154;13.812;2022-07-19T08:28:14;1.95;;;1.40;;
39266;SDS011;24967;51.154;13.812;2022-07-19T08:30:42;2.10;;;1.17;;
39266;SDS011;24967;51.154;13.812;2022-07-19T08:33:08;5.55;;;1.70;;
39266;SDS011;24967;51.154;13.812;2022-07-19T08:35:35;4.53;;;1.50;;
39266;SDS011;24967;51.154;13.812;2022-07-19T08:38:02;2.35;;;1.65;;
39266;SDS011;24967;51.154;13.812;2022-07-19T08:40:29;1.80;;;1.42;;
39266;SDS011;24967;51.154;13.812;2022-07-19T08:42:59;4.50;;;1.40;;
39266;SDS011;24967;51.154;13.812;2022-07-19T08:45:30;2.38;;;1.42;;
39266;SDS011;24967;51.154;13.812;2022-07-19T08:47:58;2.40;;;1.42;;
39266;SDS011;24967;51.154;13.812;2022-07-19T08:50:25;2.35;;;1.40;;
39266;SDS011;24967;51.154;13.812;2022-07-19T08:52:52;4.88;;;1.40;;
39266;SDS011;24967;51.154;13.812;2022-07-19T08:55:19;2.28;;;1.50;;
39266;SDS011;24967;51.154;13.812;2022-07-19T08:57:45;2.97;;;1.30;;
39266;SDS011;24967;51.154;13.812;2022-07-19T09:00:23;1.30;;;1.20;;
39266;SDS011;24967;51.154;13.812;2022-07-19T09:02:51;2.47;;;1.77;;
39266;SDS011;24967;51.154;13.812;2022-07-19T09:05:21;1.92;;;1.73;;
39266;SDS011;24967;51.154;13.812;2022-07-19T09:07:59;2.08;;;1.70;;
39266;SDS011;24967;51.154;13.812;2022-07-19T09:10:30;2.50;;;1.63;;
39266;SDS011;24967;51.154;13.812;2022-07-19T09:13:02;2.03;;;1.67;;
39266;SDS011;24967;51.154;13.812;2022-07-19T09:15:41;3.35;;;1.90;;
39266;SDS011;24967;51.154;13.812;2022-07-19T09:18:13;3.70;;;1.50;;
39266;SDS011;24967;51.154;13.812;2022-07-19T09:20:46;2.40;;;2.20;;
39266;SDS011;24967;51.154;13.812;2022-07-19T09:23:13;5.63;;;2.00;;
39266;SDS011;24967;51.154;13.812;2022-07-19T09:25:41;2.72;;;2.03;;
39266;SDS011;24967;51.154;13.812;2022-07-19T09:28:09;2.15;;;1.52;;
39266;SDS011;24967;51.154;13.812;2022-07-19T09:30:37;3.13;;;2.10;;
39266;SDS011;24967;51.154;13.812;2022-07-19T09:33:10;1.80;;;1.43;;
39266;SDS011;24967;51.154;13.812;2022-07-19T09:35:39;1.35;;;1.25;;
39266;SDS011;24967;51.154;13.812;2022-07-19T09:38:18;2.78;;;1.50;;
39266;SDS011;24967;51.154;13.812;2022-07-19T09:40:47;2.47;;;1.50;;
39266;SDS011;24967;51.154;13.812;2022-07-19T09:43:15;2.15;;;1.42;;
39266;SDS011;24967;51.154;13.812;2022-07-19T09:45:42;3.30;;;1.20;;
39266;SDS011;24967;51.154;13.812;2022-07-19T09:48:09;2.90;;;1.45;;
39266;SDS011;24967;51.154;13.812;2022-07-19T09:50:36;1.95;;;1.60;;
39266;SDS011;24967;51.154;13.812;2022-07-19T09:53:03;2.15;;;1.50;;
39266;SDS011;24967;51.154;13.812;2022-07-19T09:55:32;1.75;;;1.30;;
39266;SDS011;24967;51.154;13.812;2022-07-19T09:57:59;1.40;;;1.30;;
39266;SDS011;24967;51.154;13.812;2022-07-19T10:00:28;1.60;;;1.43;;
39266;SDS011;24967;51.154;13.812;2022-07-19T10:02:55;4.53;;;1.20;;
39266;SDS011;24967;51.154;13.812;2022-07-19T10:05:24;2.25;;;1.55;;
39266;SDS011;24967;51.154;13.812;2022-07-19T10:07:51;2.00;;;1.70;;
39266;SDS011;24967;51.154;13.812;2022-07-19T10:10:18;3.17;;;1.73;;
39266;SDS011;24967;51.154;13.812;2022-07-19T10:12:48;2.38;;;2.13;;
39266;SDS011;24967;51.154;13.812;2022-07-19T10:15:16;1.65;;;1.55;;
39266;SDS011;24967;51.154;13.812;2022-07-19T10:17:47;2.65;;;1.80;;
39266;SDS011;24967;51.154;13.812;2022-07-19T10:20:22;2.20;;;1.67;;
39266;SDS011;24967;51.154;13.812;2022-07-19T10:22:51;2.17;;;1.60;;
39266;SDS011;24967;51.154;13.812;2022-07-19T10:25:18;3.25;;;1.60;;
39266;SDS011;24967;51.154;13.812;2022-07-19T10:27:45;1.77;;;1.40;;
39266;SDS011;24967;51.154;13.812;2022-07-19T10:30:19;2.88;;;1.60;;
39266;SDS011;24967;51.154;13.812;2022-07-19T10:32:51;1.63;;;1.52;;
39266;SDS011;24967;51.154;13.812;2022-07-19T10:35:20;4.18;;;1.55;;
39266;SDS011;24967;51.154;13.812;2022-07-19T10:37:49;3.33;;;1.40;;
39266;SDS011;24967;51.154;13.812;2022-07-19T10:40:36;3.42;;;1.30;;
39266;SDS011;24967;51.154;13.812;2022-07-19T10:43:08;1.40;;;1.30;;
39266;SDS011;24967;51.154;13.812;2022-07-19T10:45:36;4.10;;;1.50;;
39266;SDS011;24967;51.154;13.812;2022-07-19T10:48:14;4.60;;;1.55;;
39266;SDS011;24967;51.154;13.812;2022-07-19T10:50:42;1.75;;;1.65;;
39266;SDS011;24967;51.154;13.812;2022-07-19T10:53:11;4.00;;;1.70;;
39266;SDS011;24967;51.154;13.812;2022-07-19T10:56:22;2.42;;;1.65;;
39266;SDS011;24967;51.154;13.812;2022-07-19T10:58:53;2.65;;;2.20;;
39266;SDS011;24967;51.154;13.812;2022-07-19T11:01:21;5.05;;;2.67;;
39266;SDS011;24967;51.154;13.812;2022-07-19T11:03:48;3.15;;;1.70;;
39266;SDS011;24967;51.154;13.812;2022-07-19T11:06:19;3.75;;;1.58;;
39266;SDS011;24967;51.154;13.812;2022-07-19T11:08:47;3.53;;;1.75;;
39266;SDS011;24967;51.154;13.812;2022-07-19T11:11:15;1.83;;;1.73;;
39266;SDS011;24967;51.154;13.812;2022-07-19T11:13:44;1.60;;;1.50;;
39266;SDS011;24967;51.154;13.812;2022-07-19T11:16:13;1.58;;;1.40;;
39266;SDS011;24967;51.154;13.812;2022-07-19T11:18:40;1.85;;;1.25;;
39266;SDS011;24967;51.154;13.812;2022-07-19T11:21:08;3.38;;;1.52;;
39266;SDS011;24967;51.154;13.812;2022-07-19T11:23:36;2.90;;;1.40;;
39266;SDS011;24967;51.154;13.812;2022-07-19T11:26:05;1.83;;;1.65;;
39266;SDS011;24967;51.154;13.812;2022-07-19T11:28:33;1.95;;;1.33;;
39266;SDS011;24967;51.154;13.812;2022-07-19T11:30:59;1.67;;;1.58;;
39266;SDS011;24967;51.154;13.812;2022-07-19T11:33:27;3.25;;;1.50;;
39266;SDS011;24967;51.154;13.812;2022-07-19T11:35:54;2.33;;;1.38;;
39266;SDS011;24967;51.154;13.812;2022-07-19T11:38:22;4.35;;;1.70;;
39266;SDS011;24967;51.154;13.812;2022-07-19T11:40:49;1.67;;;1.60;;
39266;SDS011;24967;51.154;13.812;2022-07-19T11:43:16;2.92;;;1.70;;
39266;SDS011;24967;51.154;13.812;2022-07-19T11:45:43;1.58;;;1.48;;
39266;SDS011;24967;51.154;13.812;2022-07-19T11:48:11;2.40;;;1.57;;
39266;SDS011;24967;51.154;13.812;2022-07-19T11:50:39;4.68;;;1.70;;
39266;SDS011;24967;51.154;13.812;2022-07-19T11:53:07;2.28;;;1.60;;
39266;SDS011;24967;51.154;13.812;2022-07-19T11:55:34;2.20;;;1.70;;
39266;SDS011;24967;51.154;13.812;2022-07-19T11:58:05;2.78;;;2.20;;
39266;SDS011;24967;51.154;13.812;2022-07-19T12:00:33;1.98;;;1.88;;
39266;SDS011;24967;51.154;13.812;2022-07-19T12:03:00;4.88;;;2.42;;
39266;SDS011;24967;51.154;13.812;2022-07-19T12:07:59;4.55;;;2.30;;
39266;SDS011;24967;51.154;13.812;2022-07-19T12:10:33;4.88;;;2.63;;
39266;SDS011;24967;51.154;13.812;2022-07-19T12:13:01;4.03;;;2.13;;
39266;SDS011;24967;51.154;13.812;2022-07-19T12:15:41;3.42;;;1.80;;
39266;SDS011;24967;51.154;13.812;2022-07-19T12:18:09;3.10;;;2.13;;
39266;SDS011;24967;51.154;13.812;2022-07-19T12:20:36;2.95;;;2.15;;
39266;SDS011;24967;51.154;13.812;2022-07-19T12:23:11;3.92;;;2.08;;
39266;SDS011;24967;51.154;13.812;2022-07-19T12:25:39;3.95;;;2.05;;
39266;SDS011;24967;51.154;13.812;2022-07-19T12:28:06;4.45;;;3.10;;
39266;SDS011;24967;51.154;13.812;2022-07-19T12:30:33;3.83;;;2.17;;
39266;SDS011;24967;51.154;13.812;2022-07-19T12:33:06;3.42;;;2.45;;
39266;SDS011;24967;51.154;13.812;2022-07-19T12:35:41;3.97;;;2.05;;
39266;SDS011;24967;51.154;13.812;2022-07-19T12:38:08;4.72;;;1.90;;
39266;SDS011;24967;51.154;13.812;2022-07-19T12:40:37;2.63;;;2.42;;
39266;SDS011;24967;51.154;13.812;2022-07-19T12:43:05;3.30;;;2.33;;
39266;SDS011;24967;51.154;13.812;2022-07-19T12:45:35;2.88;;;2.20;;
39266;SDS011;24967;51.154;13.812;2022-07-19T12:48:04;4.68;;;2.28;;
39266;SDS011;24967;51.154;13.812;2022-07-19T12:50:33;3.30;;;2.03;;
39266;SDS011;24967;51.154;13.812;2022-07-19T12:53:02;1.92;;;1.83;;
39266;SDS011;24967;51.154;13.812;2022-07-19T12:55:30;3.17;;;2.17;;
39266;SDS011;24967;51.154;13.812;2022-07-19T12:57:59;2.47;;;2.20;;
39266;SDS011;24967;51.154;13.812;2022-07-19T13:00:28;4.18;;;1.92;;
39266;SDS011;24967;51.154;13.812;2022-07-19T13:02:56;2.23;;;2.13;;
39266;SDS011;24967;51.154;13.812;2022-07-19T13:05:23;2.80;;;2.55;;
39266;SDS011;24967;51.154;13.812;2022-07-19T13:07:51;3.30;;;2.50;;
39266;SDS011;24967;51.154;13.812;2022-07-19T13:10:17;5.68;;;2.28;;
39266;SDS011;24967;51.154;13.812;2022-07-19T13:12:45;2.38;;;2.20;;
39266;SDS011;24967;51.154;13.812;2022-07-19T13:15:13;2.88;;;2.28;;
39266;SDS011;24967;51.154;13.812;2022-07-19T13:17:40;3.15;;;2.10;;
39266;SDS011;24967;51.154;13.812;2022-07-19T13:20:07;2.78;;;2.58;;
39266;SDS011;24967;51.154;13.812;2022-07-19T13:22:34;5.72;;;2.75;;
39266;SDS011;24967;51.154;13.812;2022-07-19T13:25:01;2.63;;;2.42;;
39266;SDS011;24967;51.154;13.812;2022-07-19T13:27:27;3.17;;;2.08;;
39266;SDS011;24967;51.154;13.812;2022-07-19T14:21:58;2.58;;;2.38;;
39266;SDS011;24967;51.154;13.812;2022-07-19T14:24:24;2.55;;;2.35;;
39266;SDS011;24967;51.154;13.812;2022-07-19T14:26:51;2.53;;;2.33;;
39266;SDS011;24967;51.154;13.812;2022-07-19T14:29:17;2.97;;;2.78;;
39266;SDS011;24967;51.154;13.812;2022-07-19T14:31:43;6.63;;;2.88;;
39266;SDS011;24967;51.154;13.812;2022-07-19T14:34:10;3.88;;;2.30;;
39266;SDS011;24967;51.154;13.812;2022-07-19T14:36:37;3.13;;;2.80;;
39266;SDS011;24967;51.154;13.812;2022-07-19T14:39:04;7.28;;;2.88;;
39266;SDS011;24967;51.154;13.812;2022-07-19T14:41:33;3.60;;;3.00;;
39266;SDS011;24967;51.154;13.812;2022-07-19T14:44:00;4.35;;;2.90;;
39266;SDS011;24967;51.154;13.812;2022-07-19T14:46:26;2.83;;;2.47;;
39266;SDS011;24967;51.154;13.812;2022-07-19T14:48:53;2.58;;;2.45;;
39266;SDS011;24967;51.154;13.812;2022-07-19T14:51:19;3.63;;;2.80;;
39266;SDS011;24967;51.154;13.812;2022-07-19T14:53:45;3.00;;;2.80;;
39266;SDS011;24967;51.154;13.812;2022-07-19T14:56:13;2.70;;;2.50;;
39266;SDS011;24967;51.154;13.812;2022-07-19T14:58:40;3.53;;;3.17;;
39266;SDS011;24967;51.154;13.812;2022-07-19T15:01:07;3.50;;;2.85;;
39266;SDS011;24967;51.154;13.812;2022-07-19T15:03:34;3.80;;;2.72;;
39266;SDS011;24967;51.154;13.812;2022-07-19T15:06:00;3.83;;;3.20;;
39266;SDS011;24967;51.154;13.812;2022-07-19T15:08:27;3.97;;;3.35;;
39266;SDS011;24967;51.154;13.812;2022-07-19T15:10:53;3.53;;;3.22;;
39266;SDS011;24967;51.154;13.812;2022-07-19T15:13:21;2.85;;;2.65;;
39266;SDS011;24967;51.154;13.812;2022-07-19T15:15:47;5.68;;;2.80;;
39266;SDS011;24967;51.154;13.812;2022-07-19T15:18:14;6.00;;;3.40;;
39266;SDS011;24967;51.154;13.812;2022-07-19T15:20:41;3.10;;;2.80;;
39266;SDS011;24967;51.154;13.812;2022-07-19T15:23:08;4.10;;;2.60;;
39266;SDS011;24967;51.154;13.812;2022-07-19T15:25:36;3.78;;;2.92;;
39266;SDS011;24967;51.154;13.812;2022-07-19T15:28:02;3.40;;;3.03;;
39266;SDS011;24967;51.154;13.812;2022-07-19T15:30:30;3.88;;;3.13;;
39266;SDS011;24967;51.154;13.812;2022-07-19T15:32:56;3.13;;;2.83;;